Flight Track Log - Related Links

Times and Time Zones

All times are in EDT time to prevent confusion due to time zone crossing. See the UAL4234 flight status page for this flight to view local times or setup timezone preferences in your user account.

Time Position Orientation Groundspeed Altitude Reporting Facility
EDT Latitude Longitude Course Direction KTS MPH feet Rate Location/Type
Sun 06:21:18 PM 29.9572 -95.3392 121° Southeast 179 206 700  Level Houston Center
Sun 06:21:56 PM 29.9419 -95.3097 121° Southeast 187 215 1,800 2,000 Climbing Houston Center
Sun 06:22:57 PM 29.9247 -95.2394 106° East 254 292 4,000 2,311 Climbing Houston Center
Sun 06:23:58 PM 29.9186 -95.1511 95° East 266 306 6,500 2,186 Climbing Houston Center
Sun 06:25:06 PM 29.9133 -95.0667 94° East 283 326 8,700 2,262 Climbing Houston Center
Sun 06:26:08 PM 29.9053 -94.9503 95° East 300 345 11,400 1,790 Climbing Houston Center
Sun 06:27:10 PM 29.8978 -94.8408 94° East 327 376 12,400 1,016 Climbing Houston Center
Sun 06:28:12 PM 29.8906 -94.7164 94° East 379 436 13,500 1,258 Climbing Houston Center
Sun 06:29:14 PM 29.8806 -94.5864 95° East 403 464 15,000 1,548 Climbing Houston Center
Sun 06:30:16 PM 29.8722 -94.4542 94° East 411 473 16,700 1,452 Climbing Houston Center
Sun 06:31:18 PM 29.8625 -94.3200 95° East 418 481 18,000 1,452 Climbing Houston Center
Sun 06:32:20 PM 29.8578 -94.1625 92° East 420 483 19,700 1,536 Climbing Houston Center
Sun 06:33:23 PM 29.8564 -94.0261 91° East 426 490 21,200 1,440 Climbing Houston Center
Sun 06:34:25 PM 29.8697 -93.8900 84° East 429 494 22,700 1,452 Climbing Houston Center
Sun 06:35:27 PM 29.8839 -93.7539 83° East 431 496 24,200 1,452 Climbing Houston Center
Sun 06:36:29 PM 29.8992 -93.6161 83° East 435 501 25,700 1,597 Climbing Houston Center
Sun 06:37:31 PM 29.9150 -93.4514 84° East 436 502 27,500 1,597 Climbing Houston Center
Sun 06:38:33 PM 29.9292 -93.3156 83° East 432 497 29,000 1,452 Climbing Houston Center
Sun 06:39:35 PM 29.9428 -93.1803 83° East 430 495 30,500 1,403 Climbing Houston Center
Sun 06:40:37 PM 29.9564 -93.0467 83° East 423 487 31,900 1,258 Climbing Houston Center
Sun 06:41:39 PM 29.9689 -92.9131 84° East 421 484 33,100 1,113 Climbing Houston Center
Sun 06:42:41 PM 29.9828 -92.7508 84° East 424 488 34,200 864 Climbing Houston Center
Sun 06:43:44 PM 29.9931 -92.6147 85° East 428 493 34,900 384 Climbing Houston Center
Sun 06:44:46 PM 30.0219 -92.4781 76° East 444 511 35,000 48 Climbing Houston Center
Sun 06:45:48 PM 30.0614 -92.3358 72° East 461 531 35,000  Level Houston Center
Sun 06:46:50 PM 30.1039 -92.1889 71° East 476 548 35,000  Level Houston Center
Sun 06:47:52 PM 30.1558 -92.0058 72° East 495 570 35,000  Level Houston Center
Sun 06:48:54 PM 30.2000 -91.8497 72° East 507 583 35,000  Level Houston Center
Sun 06:49:56 PM 30.2436 -91.6953 72° East 516 594 35,000  Level Houston Center
Sun 06:50:58 PM 30.2869 -91.5375 72° East 515 593 35,000  Level Houston Center
Sun 06:52:00 PM 30.3303 -91.3794 72° East 516 594 35,000  Level Houston Center
Sun 06:53:02 PM 30.3819 -91.1922 72° East 512 589 35,000  Level Houston Center
Sun 06:54:04 PM 30.4253 -91.0344 72° East 514 592 35,000  Level Houston Center
Sun 06:55:07 PM 30.4675 -90.8764 73° East 514 592 35,000  Level Houston Center
Sun 06:56:09 PM 30.5103 -90.7186 72° East 513 590 35,000  Level Houston Center
Sun 06:57:11 PM 30.5531 -90.5600 73° East 516 594 35,000  Level Houston Center
Sun 06:58:13 PM 30.5950 -90.4008 73° East 515 593 35,000  Level Houston Center
Sun 06:59:15 PM 30.6464 -90.2092 73° East 515 593 35,000  Level Houston Center
Sun 07:00:17 PM 30.6889 -90.0472 73° East 517 595 35,000  Level Houston Center
Sun 07:01:19 PM 30.7308 -89.8847 73° East 521 600 35,000  Level Houston Center
Sun 07:02:21 PM 30.7728 -89.7228 73° East 520 598 35,000  Level Houston Center
Sun 07:03:23 PM 30.8144 -89.5603 73° East 522 601 35,000  Level Houston Center
Sun 07:04:25 PM 30.8564 -89.3992 73° East 520 598 35,000  Level Houston Center
Sun 07:05:27 PM 30.8981 -89.2372 73° East 521 600 35,000  Level Houston Center
Sun 07:06:30 PM 30.9381 -89.0733 74° East 523 602 35,000  Level Houston Center
Sun 07:07:32 PM 30.9850 -88.8853 74° East 524 603 35,000  Level Houston Center
Sun 07:08:34 PM 31.0253 -88.7225 74° East 524 603 35,000  Level Houston Center
Sun 07:09:36 PM 31.0692 -88.5500 73° East 528 608 35,000  Level Houston Center
Sun 07:10:38 PM 31.1106 -88.3847 74° East 529 609 35,000  Level Houston Center
Sun 07:11:40 PM 31.1494 -88.2181 75° East 535 616 35,000  Level Houston Center
Sun 07:12:42 PM 31.1922 -88.0531 73° East 534 615 35,000  Level Houston Center
Sun 07:13:44 PM 31.2350 -87.8811 74° East 534 615 35,000  Level Houston Center
Sun 07:14:46 PM 31.2839 -87.6800 74° East 534 615 35,000  Level Houston Center
Sun 07:15:48 PM 31.3461 -87.5275 64° Northeast 519 597 35,000  Level Houston Center
Sun 07:16:17 PM 31.3881 -87.4733 48° Northeast 519 597 35,000  Level Atlanta Center
Sun 07:17:17 PM 31.4833 -87.3481 48° Northeast 507 583 35,000  Level Atlanta Center
Sun 07:18:17 PM 31.5661 -87.2072 55° Northeast 512 589 35,000  Level Atlanta Center
Sun 07:19:17 PM 31.6286 -87.0533 64° Northeast 517 595 35,000  Level Atlanta Center
Sun 07:20:17 PM 31.6931 -86.8797 66° East 517 595 35,000  Level Atlanta Center
Sun 07:21:17 PM 31.7572 -86.7256 64° Northeast 522 601 35,000  Level Atlanta Center
Sun 07:22:17 PM 31.8189 -86.5686 65° Northeast 527 606 35,000  Level Atlanta Center
Sun 07:23:17 PM 31.8825 -86.4064 65° Northeast 527 606 35,000  Level Atlanta Center
Sun 07:24:17 PM 31.9439 -86.2489 65° Northeast 527 606 35,000  Level Atlanta Center
Sun 07:25:17 PM 32.0050 -86.0889 66° East 532 612 35,000  Level Atlanta Center
Sun 07:26:17 PM 32.0594 -85.9481 65° Northeast 532 612 35,000  Level Atlanta Center
Sun 07:27:17 PM 32.1286 -85.7875 63° Northeast 532 612 35,000  Level Atlanta Center
Sun 07:28:17 PM 32.1894 -85.6242 66° East 537 618 35,000  Level Atlanta Center
Sun 07:29:17 PM 32.2497 -85.4633 66° East 537 618 35,000  Level Atlanta Center
Sun 07:30:17 PM 32.3161 -85.3047 64° Northeast 537 618 35,000  Level Atlanta Center
Sun 07:31:17 PM 32.3761 -85.1431 66° East 537 618 35,000  Level Atlanta Center
Sun 07:32:17 PM 32.4381 -84.9839 65° Northeast 532 612 35,000  Level Atlanta Center
Sun 07:33:17 PM 32.5061 -84.8097 65° Northeast 532 612 35,000  Level Atlanta Center
Sun 07:34:17 PM 32.5653 -84.6475 67° East 532 612 35,000  Level Atlanta Center
Sun 07:35:17 PM 32.6267 -84.4853 66° East 532 612 35,000  Level Atlanta Center
Sun 07:36:17 PM 32.6897 -84.3203 66° East 532 612 35,000  Level Atlanta Center
Sun 07:37:17 PM 32.7525 -84.1575 65° Northeast 538 619 35,000  Level Atlanta Center
Sun 07:38:17 PM 32.8133 -83.9944 66° East 538 619 35,000  Level Atlanta Center
Sun 07:39:17 PM 32.8756 -83.8261 66° East 538 619 35,000  Level Atlanta Center
Sun 07:40:17 PM 32.9358 -83.6603 67° East 538 619 35,000  Level Atlanta Center
Sun 07:41:17 PM 32.9956 -83.4989 66° East 538 619 35,000  Level Atlanta Center
Sun 07:42:17 PM 33.0575 -83.3325 66° East 538 619 35,000 -500 Level Atlanta Center
Sun 07:43:17 PM 33.1108 -83.1808 67° East 543 625 34,000 -1,000 Descending Atlanta Center
Sun 07:44:17 PM 33.1700 -83.0189 66° East 538 619 33,000 -500 Descending Atlanta Center
Sun 07:45:17 PM 33.2331 -82.8417 67° East 538 619 33,000  Level Atlanta Center
Sun 07:47:44 PM 33.3722 -82.4450 67° East 556 640 33,000  Level Jacksonville Center
Sun 07:48:44 PM 33.4322 -82.2803 66° East 551 634 33,000  Level Jacksonville Center
Sun 07:49:44 PM 33.4917 -82.1106 67° East 551 634 33,000  Level Jacksonville Center
Sun 07:50:44 PM 33.5511 -81.9406 67° East 551 634 33,000  Level Jacksonville Center
Sun 07:51:44 PM 33.6122 -81.7728 66° East 546 628 33,000  Level Jacksonville Center
Sun 07:52:45 PM 33.6775 -81.6072 65° Northeast 541 623 33,000 -150 Level Jacksonville Center
Sun 07:53:44 PM 33.7886 -81.4556 49° Northeast 541 623 32,700 -958 Descending Jacksonville Center
Sun 07:54:44 PM 33.8850 -81.3239 49° Northeast 541 623 31,100 -1,650 Descending Jacksonville Center
Sun 07:55:44 PM 33.9856 -81.1844 49° Northeast 535 616 29,400 -1,050 Descending Jacksonville Center
Sun 07:56:44 PM 34.0839 -81.0497 49° Northeast 535 616 29,000 -600 Descending Jacksonville Center
Sun 07:57:44 PM 34.1717 -80.9272 49° Northeast 540 621 28,200 -1,400 Descending Jacksonville Center
Sun 07:58:44 PM 34.2778 -80.7817 49° Northeast 534 615 26,200 -2,000 Descending Jacksonville Center
Sun 07:59:44 PM 34.3714 -80.6461 50° Northeast 524 603 24,200 -1,100 Descending Jacksonville Center
Sun 08:00:44 PM 34.4608 -80.5228 49° Northeast 508 585 24,000 -78 Descending Jacksonville Center
Sun 08:02:17 PM 34.5931 -80.3325 50° Northeast 507 583 24,000 -353 Level Washington Center
Sun 08:03:17 PM 34.6817 -80.2061 50° Northeast 500 575 23,100 -500 Descending Washington Center
Sun 08:04:17 PM 34.7678 -80.0822 50° Northeast 489 563 23,000 -250 Descending Washington Center
Sun 08:05:17 PM 34.8700 -79.9689 42° Northeast 489 563 22,600 -1,000 Descending Washington Center
Sun 08:06:17 PM 34.9700 -79.8578 42° Northeast 479 551 21,000 -1,600 Descending Washington Center
Sun 08:07:17 PM 35.0633 -79.7561 42° Northeast 465 535 19,400 -1,550 Descending Washington Center
Sun 08:08:17 PM 35.1586 -79.6542 41° Northeast 451 519 17,900 -1,450 Descending Washington Center
Sun 08:09:17 PM 35.2533 -79.5650 38° Northeast 434 499 16,500 -1,700 Descending Washington Center
Sun 08:10:17 PM 35.3494 -79.4983 29° Northeast 409 471 14,500 -2,071 Descending Washington Center
Sun 08:10:41 PM 35.3858 -79.4747 28° Northeast 375 432 13,600 -1,900 Descending Washington Center
Sun 08:11:17 PM 35.4283 -79.4436 31° Northeast 378 435 12,600 -2,182 Descending Washington Center
Sun 08:11:36 PM 35.4647 -79.4172 31° Northeast 348 400 11,600 -2,000 Descending Washington Center
Sun 08:12:17 PM 35.5142 -79.3764 34° Northeast 344 396 10,600 -1,700 Descending Washington Center
Sun 08:12:36 PM 35.5294 -79.3489 56° Northeast 297 342 9,900 -2,000 Descending Washington Center
Sun 08:13:17 PM 35.5561 -79.3042 54° Northeast 295 339 8,600 -2,164 Descending Washington Center
Sun 08:13:37 PM 35.5778 -79.2719 50° Northeast 278 320 7,700 -2,100 Descending Washington Center
Sun 08:14:17 PM 35.6025 -79.2169 61° Northeast 275 316 6,500 -1,600 Descending Washington Center
Sun 08:14:37 PM 35.6156 -79.1972 51° Northeast 257 296 6,100 -800 Descending Washington Center
Sun 08:15:17 PM 35.6400 -79.1522 56° Northeast 248 285 5,700 -1,082 Descending Washington Center
Sun 08:15:38 PM 35.6486 -79.1372 55° Northeast 204 235 5,000 -1,600 Descending Washington Center
Sun 08:16:17 PM 35.6728 -79.0950 55° Northeast 210 242 4,100 -1,082 Descending Washington Center
Sun 08:16:39 PM 35.6817 -79.0800 54° Northeast 199 229 3,900 -800 Descending Washington Center
Sun 08:17:17 PM 35.7036 -79.0400 56° Northeast 199 229 3,300 -490 Descending Washington Center
Sun 08:18:17 PM 35.7367 -78.9850 53° Northeast 199 229 3,100 -145 Descending Washington Center
Sun 08:18:40 PM 35.7456 -78.9650 61° Northeast 194 223 3,100  Level Washington Center
Sun 08:19:17 PM 35.7650 -78.9350 51° Northeast 187 215 3,100 -90 Level Washington Center
Sun 08:19:47 PM 35.7822 -78.9181 39° Northeast 181 208 3,000 -600 Descending Washington Center
Sun 08:20:17 PM 35.8017 -78.8958 43° Northeast 175 201 2,500 -900 Descending Washington Center
Sun 08:20:47 PM 35.8147 -78.8783 47° Northeast 171 197 2,100 -800 Descending Washington Center

Login

Don't have an account? Register now (free) for customized features, flight alerts, and more!